createdAt,value
2022-12-23T00:00:57.998Z,7.13
2022-12-23T00:03:24.905Z,6.77
2022-12-23T00:05:51.441Z,8.43
2022-12-23T00:08:18.140Z,6.75
2022-12-23T00:10:44.782Z,7.47
2022-12-23T00:13:30.058Z,7.57
2022-12-23T00:16:03.520Z,6.23
2022-12-23T00:18:30.002Z,6.15
2022-12-23T00:21:04.837Z,6.60
2022-12-23T00:23:35.616Z,7.43
2022-12-23T00:26:02.514Z,6.43
2022-12-23T00:28:29.772Z,5.85
2022-12-23T00:30:59.905Z,5.97
2022-12-23T00:33:27.786Z,5.80
2022-12-23T00:35:54.487Z,4.25
2022-12-23T00:38:41.426Z,5.32
2022-12-23T00:41:30.450Z,5.73
2022-12-23T00:43:57.257Z,5.68
2022-12-23T00:46:23.689Z,5.22
2022-12-23T00:49:08.649Z,4.97
2022-12-23T00:51:35.007Z,4.60
2022-12-23T00:54:01.625Z,4.97
2022-12-23T00:56:28.161Z,4.38
2022-12-23T00:58:54.571Z,5.53
2022-12-23T01:01:39.615Z,3.78
2022-12-23T01:04:26.020Z,4.20
2022-12-23T01:06:52.500Z,4.23
2022-12-23T01:09:18.835Z,4.65
2022-12-23T01:11:45.237Z,4.10
2022-12-23T01:14:12.730Z,4.25
2022-12-23T01:16:39.686Z,4.40
2022-12-23T01:19:06.862Z,4.17
2022-12-23T01:21:33.824Z,4.05
2022-12-23T01:24:00.418Z,4.68
2022-12-23T01:26:26.987Z,4.10
2022-12-23T01:28:55.639Z,4.30
2022-12-23T01:31:22.561Z,3.93
2022-12-23T01:33:49.150Z,4.97
2022-12-23T01:36:17.923Z,4.15
2022-12-23T01:38:44.484Z,5.93
2022-12-23T01:41:35.550Z,4.53
2022-12-23T01:44:02.564Z,4.40
2022-12-23T01:46:28.983Z,5.03
2022-12-23T01:48:55.908Z,5.15
2022-12-23T01:51:29.617Z,5.32
2022-12-23T01:53:58.301Z,4.85
2022-12-23T01:56:34.533Z,4.93
2022-12-23T01:59:02.629Z,5.20
2022-12-23T02:01:48.160Z,4.55
2022-12-23T02:04:17.459Z,4.85
2022-12-23T02:07:04.048Z,5.22
2022-12-23T02:09:35.253Z,5.50
2022-12-23T02:12:16.652Z,4.43
2022-12-23T02:15:08.049Z,4.70
2022-12-23T02:17:53.168Z,5.00
2022-12-23T02:20:22.272Z,4.25
2022-12-23T02:23:07.202Z,5.27
2022-12-23T02:25:33.541Z,4.00
2022-12-23T02:28:17.395Z,4.10
2022-12-23T02:30:48.652Z,4.55
2022-12-23T02:33:18.200Z,5.13
2022-12-23T02:35:44.505Z,4.43
2022-12-23T02:38:23.634Z,5.30
2022-12-23T02:41:03.186Z,5.40
2022-12-23T02:43:40.766Z,5.25
2022-12-23T02:46:13.327Z,4.72
2022-12-23T02:48:45.423Z,5.00
2022-12-23T02:51:13.906Z,5.00
2022-12-23T02:53:43.158Z,5.13
2022-12-23T02:56:10.942Z,4.43
2022-12-23T02:58:41.529Z,5.03
2022-12-23T03:01:08.249Z,4.73
2022-12-23T03:03:35.722Z,4.03
2022-12-23T03:06:02.787Z,4.35
2022-12-23T03:08:34.973Z,4.75
2022-12-23T03:11:08.535Z,4.53
2022-12-23T03:13:43.952Z,5.23
2022-12-23T03:16:19.366Z,4.50
2022-12-23T03:19:04.130Z,4.93
2022-12-23T03:21:30.470Z,5.65
2022-12-23T03:24:17.077Z,5.13
2022-12-23T03:26:46.529Z,5.33
2022-12-23T03:29:16.554Z,4.75
2022-12-23T03:31:44.320Z,5.10
2022-12-23T03:34:12.599Z,5.45
2022-12-23T03:36:41.745Z,4.65
2022-12-23T03:39:10.615Z,4.27
2022-12-23T03:41:40.937Z,3.97
2022-12-23T03:44:13.352Z,4.50
2022-12-23T03:46:41.523Z,4.30
2022-12-23T03:49:11.677Z,4.00
2022-12-23T03:51:45.656Z,4.77
2022-12-23T03:54:14.863Z,4.55
2022-12-23T03:56:43.103Z,4.15
2022-12-23T03:59:17.424Z,4.10
2022-12-23T04:01:43.887Z,5.03
2022-12-23T04:04:14.967Z,5.00
2022-12-23T04:06:49.693Z,4.55
2022-12-23T04:09:22.179Z,4.35
2022-12-23T04:11:49.358Z,4.80
2022-12-23T04:14:19.590Z,4.55
2022-12-23T04:16:46.320Z,4.97
2022-12-23T04:19:12.783Z,5.30
2022-12-23T04:21:39.215Z,4.40
2022-12-23T04:24:05.712Z,4.40
2022-12-23T04:26:32.217Z,4.15
2022-12-23T04:28:58.596Z,4.60
2022-12-23T04:31:25.082Z,5.20
2022-12-23T04:33:51.449Z,5.60
2022-12-23T04:36:17.860Z,5.57
2022-12-23T04:38:44.212Z,5.32
2022-12-23T04:41:10.633Z,4.90
2022-12-23T04:43:37.111Z,4.60
2022-12-23T04:46:03.686Z,5.70
2022-12-23T04:48:30.063Z,6.47
2022-12-23T04:50:56.430Z,5.85
2022-12-23T04:53:22.801Z,5.55
2022-12-23T04:55:52.160Z,5.18
2022-12-23T04:58:22.052Z,5.82
2022-12-23T05:00:48.577Z,7.15
2022-12-23T05:03:15.388Z,7.10
2022-12-23T05:05:44.735Z,6.57
2022-12-23T05:08:11.173Z,5.75
2022-12-23T05:10:37.799Z,6.43
2022-12-23T05:13:04.179Z,5.78
2022-12-23T05:15:30.690Z,7.28
2022-12-23T05:17:57.035Z,5.80
2022-12-23T05:20:23.376Z,7.68
2022-12-23T05:22:49.805Z,6.95
2022-12-23T05:25:16.151Z,8.45
2022-12-23T05:27:42.533Z,7.97
2022-12-23T05:30:09.334Z,8.07
2022-12-23T05:32:35.789Z,6.53
2022-12-23T05:35:02.178Z,8.43
2022-12-23T05:37:28.623Z,7.13
2022-12-23T05:39:54.987Z,9.05
2022-12-23T05:42:21.452Z,7.67
2022-12-23T05:44:47.919Z,5.43
2022-12-23T05:47:14.276Z,7.20
2022-12-23T05:49:40.656Z,7.05
2022-12-23T05:52:07.083Z,7.72
2022-12-23T05:54:33.562Z,6.70
2022-12-23T05:56:59.926Z,7.45
2022-12-23T05:59:30.749Z,7.05
2022-12-23T06:01:58.058Z,6.03
2022-12-23T06:04:24.661Z,6.53
2022-12-23T06:06:51.140Z,5.22
2022-12-23T06:09:17.512Z,7.13
2022-12-23T06:11:43.837Z,5.68
2022-12-23T06:14:11.477Z,6.60
2022-12-23T06:16:37.882Z,6.10
2022-12-23T06:19:04.229Z,6.10
2022-12-23T06:21:30.679Z,6.78
2022-12-23T06:23:57.007Z,6.47
2022-12-23T06:26:23.678Z,7.63
2022-12-23T06:28:50.087Z,6.93
2022-12-23T06:31:16.672Z,6.53
2022-12-23T06:33:43.145Z,7.22
2022-12-23T06:36:09.909Z,5.95
2022-12-23T06:38:36.301Z,7.00
2022-12-23T06:41:02.728Z,7.30
2022-12-23T06:43:29.097Z,6.60
2022-12-23T06:45:55.535Z,5.63
2022-12-23T06:48:21.967Z,6.30
2022-12-23T06:50:48.346Z,6.55
2022-12-23T06:53:14.748Z,6.78
2022-12-23T06:55:41.138Z,5.70
2022-12-23T06:58:07.581Z,6.53
2022-12-23T07:00:34.009Z,5.68
2022-12-23T07:03:00.589Z,6.10
2022-12-23T07:05:33.294Z,5.38
2022-12-23T07:08:03.013Z,6.20
2022-12-23T07:10:29.512Z,5.97
2022-12-23T07:12:55.996Z,5.88
2022-12-23T07:15:22.426Z,5.25
2022-12-23T07:17:48.781Z,5.72
2022-12-23T07:20:15.202Z,6.03
2022-12-23T07:22:41.615Z,5.55
2022-12-23T07:25:08.581Z,5.28
2022-12-23T07:27:34.981Z,6.13
2022-12-23T07:30:01.677Z,5.38
2022-12-23T07:32:28.020Z,6.40
2022-12-23T07:34:54.458Z,5.32
2022-12-23T07:37:20.786Z,6.35
2022-12-23T07:39:47.112Z,6.80
2022-12-23T07:45:00.004Z,5.50
2022-12-23T07:47:26.449Z,5.93
2022-12-23T07:49:52.826Z,5.03
2022-12-23T07:52:19.278Z,6.50
2022-12-23T07:54:45.612Z,6.90
2022-12-23T07:57:11.982Z,6.47
2022-12-23T07:59:38.389Z,6.82
2022-12-23T08:02:04.933Z,6.80
2022-12-23T08:04:31.496Z,6.70
2022-12-23T08:06:57.850Z,6.55
2022-12-23T08:09:24.189Z,7.10
2022-12-23T08:11:50.523Z,6.75
2022-12-23T08:14:17.006Z,7.68
2022-12-23T08:16:44.180Z,7.53
2022-12-23T08:19:10.885Z,7.22
2022-12-23T08:21:37.366Z,7.38
2022-12-23T08:24:03.853Z,7.38
2022-12-23T08:26:30.188Z,7.10
2022-12-23T08:28:56.586Z,7.10
2022-12-23T08:31:24.621Z,7.93
2022-12-23T08:33:53.104Z,7.25
2022-12-23T08:36:23.295Z,8.18
2022-12-23T08:38:50.784Z,6.32
2022-12-23T08:41:18.635Z,6.90
2022-12-23T08:43:45.333Z,8.00
2022-12-23T08:46:11.923Z,7.30
2022-12-23T08:48:41.435Z,7.40
2022-12-23T08:51:11.899Z,8.00
2022-12-23T08:53:38.806Z,8.13
2022-12-23T08:56:06.530Z,8.35
2022-12-23T08:58:36.246Z,7.50
2022-12-23T09:01:03.405Z,8.07
2022-12-23T09:03:29.933Z,7.35
2022-12-23T09:05:56.375Z,7.47
2022-12-23T09:08:22.839Z,6.03
2022-12-23T09:10:49.325Z,7.00
2022-12-23T09:13:24.962Z,6.57
2022-12-23T09:15:54.340Z,4.68
2022-12-23T09:18:21.140Z,5.20
2022-12-23T09:20:47.763Z,6.45
2022-12-23T09:23:14.131Z,7.43
2022-12-23T09:25:40.580Z,6.68
2022-12-23T09:28:06.968Z,6.55
2022-12-23T09:30:33.404Z,7.68
2022-12-23T09:32:59.817Z,7.50
2022-12-23T09:35:26.216Z,8.13
2022-12-23T09:37:52.589Z,7.85
2022-12-23T09:40:20.845Z,7.70
2022-12-23T09:43:10.548Z,8.32
2022-12-23T09:45:58.297Z,8.23
2022-12-23T09:48:26.755Z,8.02
2022-12-23T09:50:53.445Z,7.50
2022-12-23T09:53:21.495Z,6.50
2022-12-23T09:55:47.841Z,6.95
2022-12-23T09:58:21.045Z,6.45
2022-12-23T10:00:57.587Z,6.00
2022-12-23T10:03:32.446Z,7.90
2022-12-23T10:06:04.780Z,5.97
2022-12-23T10:08:44.558Z,6.50
2022-12-23T10:11:13.659Z,7.20
2022-12-23T10:13:42.070Z,7.00
2022-12-23T10:16:12.934Z,7.32
2022-12-23T10:18:46.520Z,5.72
2022-12-23T10:21:17.376Z,6.63
2022-12-23T10:23:46.389Z,7.82
2022-12-23T10:26:17.609Z,7.43
2022-12-23T10:28:44.046Z,7.18
2022-12-23T10:34:15.449Z,7.43
2022-12-23T10:36:44.716Z,7.00
2022-12-23T10:39:18.133Z,7.90
2022-12-23T10:42:01.112Z,9.15
2022-12-23T10:44:27.499Z,6.88
2022-12-23T10:46:53.945Z,7.68
2022-12-23T10:49:23.180Z,6.50
2022-12-23T10:51:50.935Z,7.87
2022-12-23T10:54:28.544Z,7.00
2022-12-23T10:56:55.192Z,7.00
2022-12-23T10:59:24.707Z,7.53
2022-12-23T11:01:53.590Z,8.35
2022-12-23T11:04:24.859Z,8.20
2022-12-23T11:07:18.146Z,8.68
2022-12-23T11:09:43.745Z,8.73
2022-12-23T11:12:11.094Z,7.88
2022-12-23T11:14:37.431Z,7.75
2022-12-23T11:17:05.014Z,8.63
2022-12-23T11:19:31.407Z,8.40
2022-12-23T11:21:58.854Z,9.23
2022-12-23T11:24:26.722Z,8.65
2022-12-23T11:27:00.376Z,8.57
2022-12-23T11:29:31.967Z,8.07
2022-12-23T11:31:58.778Z,9.55
2022-12-23T11:34:26.032Z,8.82
2022-12-23T11:37:05.231Z,10.80
2022-12-23T11:39:35.158Z,12.90
2022-12-23T11:42:07.397Z,10.50
2022-12-23T11:44:41.651Z,10.13
2022-12-23T12:20:33.701Z,8.27
2022-12-23T12:23:21.200Z,11.88
2022-12-23T12:25:55.330Z,12.65
2022-12-23T12:28:30.001Z,10.05
2022-12-23T12:31:11.708Z,11.45
2022-12-23T12:33:52.225Z,9.80
2022-12-23T12:36:30.480Z,11.20
2022-12-23T12:38:59.698Z,10.90
2022-12-23T12:41:58.520Z,9.93
2022-12-23T12:45:04.052Z,11.82
2022-12-23T12:48:00.110Z,10.25
2022-12-23T12:50:31.235Z,9.32
2022-12-23T12:53:05.923Z,9.88
2022-12-23T12:55:40.006Z,9.23
2022-12-23T12:58:18.707Z,8.05
2022-12-23T13:01:21.794Z,9.57
2022-12-23T13:04:07.034Z,7.28
2022-12-23T13:07:07.178Z,7.50
2022-12-23T13:09:44.683Z,6.80
2022-12-23T13:12:21.751Z,7.95
2022-12-23T13:15:04.488Z,8.10
2022-12-23T13:17:44.761Z,10.98
2022-12-23T13:20:32.154Z,7.43
2022-12-23T13:23:34.405Z,6.70
2022-12-23T13:26:05.387Z,6.70
2022-12-23T13:28:45.691Z,7.03
2022-12-23T13:31:35.103Z,5.10
2022-12-23T13:34:23.934Z,6.85
2022-12-23T13:37:07.197Z,5.47
2022-12-23T13:39:45.560Z,5.65
2022-12-23T13:42:20.650Z,5.53
2022-12-23T13:44:47.352Z,5.80
2022-12-23T13:47:27.963Z,6.07
2022-12-23T13:50:17.107Z,5.27
2022-12-23T13:53:28.445Z,6.78
2022-12-23T13:56:24.128Z,7.00
2022-12-23T13:58:51.505Z,5.93
2022-12-23T14:01:17.997Z,6.25
2022-12-23T14:03:47.681Z,5.77
2022-12-23T14:06:23.814Z,5.47
2022-12-23T14:08:52.668Z,2.72
2022-12-23T14:11:26.636Z,2.65
2022-12-23T14:14:00.392Z,3.45
2022-12-23T14:16:48.589Z,2.00
2022-12-23T14:19:42.638Z,2.42
2022-12-23T14:22:21.209Z,2.30
2022-12-23T14:24:59.895Z,2.90
2022-12-23T14:27:33.847Z,2.95
2022-12-23T14:30:09.658Z,2.73
2022-12-23T14:32:44.173Z,3.10
2022-12-23T14:35:19.422Z,3.85
2022-12-23T14:38:07.929Z,2.83
2022-12-23T14:40:37.161Z,2.83
2022-12-23T14:43:18.772Z,3.77
2022-12-23T14:45:45.437Z,2.72
2022-12-23T14:48:33.845Z,3.88
2022-12-23T14:51:20.980Z,3.60
2022-12-23T14:53:53.787Z,4.60
2022-12-23T14:56:38.694Z,4.37
2022-12-23T14:59:50.638Z,3.80
2022-12-23T15:02:33.760Z,4.75
2022-12-23T15:05:00.647Z,4.38
2022-12-23T15:07:46.305Z,4.35
2022-12-23T15:10:20.234Z,5.10
2022-12-23T15:12:51.362Z,5.50
2022-12-23T15:15:19.322Z,5.07
2022-12-23T15:17:46.643Z,4.97
2022-12-23T15:20:21.070Z,4.82
2022-12-23T15:22:49.001Z,4.83
2022-12-23T15:25:20.634Z,4.90
2022-12-23T15:27:49.191Z,4.93
2022-12-23T15:30:18.501Z,5.45
2022-12-23T15:32:47.750Z,6.78
2022-12-23T15:35:23.307Z,4.97
2022-12-23T15:37:51.162Z,5.18
2022-12-23T15:40:29.008Z,5.03
2022-12-23T15:42:55.981Z,5.63
2022-12-23T15:45:37.915Z,5.70
2022-12-23T15:48:07.414Z,6.43
2022-12-23T15:50:41.886Z,5.72
2022-12-23T15:53:09.890Z,6.10
2022-12-23T15:55:40.096Z,5.22
2022-12-23T15:58:06.794Z,7.25
2022-12-23T16:00:38.829Z,5.37
2022-12-23T16:03:10.447Z,5.75
2022-12-23T16:05:43.146Z,7.18
2022-12-23T16:08:12.021Z,6.43
2022-12-23T16:10:39.705Z,5.55
2022-12-23T16:13:17.976Z,4.33
2022-12-23T16:15:45.183Z,5.20
2022-12-23T16:18:21.691Z,6.47
2022-12-23T16:20:59.440Z,8.07
2022-12-23T16:23:30.220Z,5.65
2022-12-23T16:26:00.344Z,6.80
2022-12-23T16:28:30.876Z,6.47
2022-12-23T16:30:58.612Z,5.47
2022-12-23T16:33:34.197Z,6.63
2022-12-23T16:36:22.447Z,4.70
2022-12-23T16:38:51.104Z,5.77
2022-12-23T16:41:19.710Z,6.93
2022-12-23T16:43:52.105Z,5.35
2022-12-23T16:46:21.655Z,6.85
2022-12-23T16:48:52.699Z,4.85
2022-12-23T16:51:22.857Z,6.27
2022-12-23T16:53:51.862Z,6.28
2022-12-23T16:56:20.851Z,6.90
2022-12-23T16:58:47.719Z,5.82
2022-12-23T17:01:17.177Z,6.70
2022-12-23T17:03:43.987Z,7.37
2022-12-23T17:06:14.849Z,5.90
2022-12-23T17:08:42.398Z,8.30
2022-12-23T17:11:16.126Z,6.90
2022-12-23T17:13:43.066Z,5.65
2022-12-23T17:16:15.361Z,4.93
2022-12-23T17:18:42.008Z,6.82
2022-12-23T17:21:20.372Z,5.82
2022-12-23T17:23:47.240Z,4.43
2022-12-23T17:26:13.783Z,4.80
2022-12-23T17:28:40.327Z,5.53
2022-12-23T17:31:13.713Z,5.20
2022-12-23T17:33:41.856Z,6.93
2022-12-23T17:36:11.086Z,7.20
2022-12-23T17:38:37.750Z,6.88
2022-12-23T17:41:04.778Z,6.17
2022-12-23T17:43:31.391Z,5.32
2022-12-23T17:45:57.967Z,5.57
2022-12-23T17:48:31.058Z,5.05
2022-12-23T17:50:58.236Z,5.88
2022-12-23T17:53:24.825Z,4.67
2022-12-23T17:55:51.371Z,4.53
2022-12-23T17:58:17.912Z,5.50
2022-12-23T18:00:44.509Z,4.53
2022-12-23T18:03:22.822Z,4.13
2022-12-23T18:05:51.915Z,4.70
2022-12-23T18:08:20.934Z,4.93
2022-12-23T18:10:47.487Z,4.60
2022-12-23T18:13:17.466Z,5.30
2022-12-23T18:15:45.522Z,4.18
2022-12-23T18:18:27.563Z,3.97
2022-12-23T18:20:58.625Z,3.92
2022-12-23T18:23:28.683Z,6.03
2022-12-23T18:25:57.137Z,4.95
2022-12-23T18:28:26.415Z,6.90
2022-12-23T18:30:55.793Z,5.60
2022-12-23T18:33:24.111Z,3.53
2022-12-23T18:35:51.025Z,5.85
2022-12-23T18:38:18.067Z,5.38
2022-12-23T18:40:44.945Z,6.22
2022-12-23T18:43:20.347Z,5.70
2022-12-23T18:45:52.404Z,6.57
2022-12-23T18:48:21.500Z,4.40
2022-12-23T18:50:49.249Z,5.50
2022-12-23T18:53:24.970Z,5.15
2022-12-23T18:55:52.922Z,4.20
2022-12-23T18:58:19.909Z,5.72
2022-12-23T19:00:50.172Z,4.95
2022-12-23T19:03:19.371Z,4.43
2022-12-23T19:05:47.324Z,5.43
2022-12-23T19:08:13.858Z,5.90
2022-12-23T19:10:40.590Z,4.72
2022-12-23T19:13:07.078Z,4.88
2022-12-23T19:15:33.628Z,6.60
2022-12-23T19:18:00.173Z,4.75
2022-12-23T19:20:26.686Z,5.20
2022-12-23T19:22:53.246Z,5.07
2022-12-23T19:25:20.157Z,3.58
2022-12-23T19:27:46.774Z,5.18
2022-12-23T19:30:17.148Z,5.22
2022-12-23T19:32:44.629Z,4.03
2022-12-23T19:35:14.647Z,4.60
2022-12-23T19:37:42.363Z,4.60
2022-12-23T19:40:10.576Z,3.88
2022-12-23T19:42:43.948Z,3.83
2022-12-23T19:45:11.264Z,3.73
2022-12-23T19:47:37.997Z,3.45
2022-12-23T19:50:06.180Z,4.40
2022-12-23T19:52:33.282Z,3.90
2022-12-23T19:54:59.797Z,3.92
2022-12-23T19:57:26.481Z,4.73
2022-12-23T19:59:53.643Z,7.25
2022-12-23T20:02:20.463Z,5.65
2022-12-23T20:04:47.223Z,6.00
2022-12-23T20:07:13.761Z,5.97
2022-12-23T20:09:40.513Z,8.63
2022-12-23T20:12:07.399Z,10.70
2022-12-23T20:14:34.634Z,5.10
2022-12-23T20:17:01.801Z,6.30
2022-12-23T20:19:29.532Z,5.75
2022-12-23T20:21:56.065Z,4.07
2022-12-23T20:24:22.635Z,3.80
2022-12-23T20:26:49.199Z,5.25
2022-12-23T20:29:15.802Z,5.28
2022-12-23T20:31:45.477Z,5.00
2022-12-23T20:34:15.712Z,5.50
2022-12-23T20:36:42.403Z,4.75
2022-12-23T20:39:09.118Z,4.07
2022-12-23T20:41:35.697Z,4.93
2022-12-23T20:44:33.453Z,5.60
2022-12-23T20:46:50.137Z,4.77
2022-12-23T20:49:16.699Z,4.20
2022-12-23T20:51:43.198Z,4.57
2022-12-23T20:54:09.789Z,4.97
2022-12-23T20:56:36.343Z,4.22
2022-12-23T20:59:03.963Z,5.00
2022-12-23T21:01:33.245Z,6.38
2022-12-23T21:04:01.847Z,8.00
2022-12-23T21:06:30.176Z,6.75
2022-12-23T21:08:59.542Z,4.90
2022-12-23T21:11:30.332Z,3.77
2022-12-23T21:14:01.114Z,4.68
2022-12-23T21:16:32.161Z,5.20
2022-12-23T21:18:59.793Z,4.68
2022-12-23T21:21:28.101Z,4.90
2022-12-23T21:23:57.668Z,5.00
2022-12-23T21:26:26.583Z,3.92
2022-12-23T21:28:54.613Z,5.57
2022-12-23T21:31:24.010Z,5.60
2022-12-23T21:33:52.507Z,4.80
2022-12-23T21:36:21.992Z,5.87
2022-12-23T21:38:49.812Z,4.32
2022-12-23T21:41:23.437Z,5.03
2022-12-23T21:43:50.725Z,8.68
2022-12-23T21:46:22.102Z,6.18
2022-12-23T21:48:49.752Z,6.13
2022-12-23T21:51:20.205Z,6.80
2022-12-23T21:53:48.494Z,6.85
2022-12-23T21:56:18.071Z,5.28
2022-12-23T21:58:45.527Z,4.38
2022-12-23T22:01:20.461Z,4.13
2022-12-23T22:03:48.832Z,5.32
2022-12-23T22:06:21.510Z,5.15
2022-12-23T22:08:48.622Z,4.32
2022-12-23T22:11:18.247Z,5.50
2022-12-23T22:13:45.795Z,4.60
2022-12-23T22:16:17.088Z,4.65
2022-12-23T22:18:44.031Z,5.53
2022-12-23T22:21:13.055Z,5.65
2022-12-23T22:23:39.887Z,4.35
2022-12-23T22:26:08.147Z,4.40
2022-12-23T22:28:36.285Z,5.25
2022-12-23T22:31:05.589Z,5.18
2022-12-23T22:33:32.695Z,5.28
2022-12-23T22:35:59.810Z,4.22
2022-12-23T22:38:26.686Z,5.70
2022-12-23T22:40:53.874Z,4.45
2022-12-23T22:43:20.503Z,6.05
2022-12-23T22:45:47.069Z,5.38
2022-12-23T22:48:13.804Z,5.22
2022-12-23T22:50:40.432Z,5.33
2022-12-23T22:53:07.064Z,5.97
2022-12-23T22:55:33.574Z,5.68
2022-12-23T22:58:00.146Z,4.30
2022-12-23T23:00:26.707Z,4.55
2022-12-23T23:02:53.188Z,5.45
2022-12-23T23:05:19.992Z,4.95
2022-12-23T23:07:47.116Z,4.68
2022-12-23T23:10:14.904Z,4.50
2022-12-23T23:12:41.605Z,5.32
2022-12-23T23:15:08.692Z,4.77
2022-12-23T23:17:35.364Z,5.40
2022-12-23T23:20:02.006Z,3.65
2022-12-23T23:22:28.703Z,4.32
2022-12-23T23:24:55.240Z,4.57
2022-12-23T23:27:21.735Z,3.42
2022-12-23T23:29:48.396Z,3.50
2022-12-23T23:32:14.992Z,4.25
2022-12-23T23:34:42.144Z,3.92
2022-12-23T23:37:08.660Z,4.35
2022-12-23T23:39:35.221Z,4.32
2022-12-23T23:42:01.890Z,3.65
2022-12-23T23:44:28.510Z,4.38
2022-12-23T23:46:55.260Z,3.33
2022-12-23T23:49:22.839Z,4.00
2022-12-23T23:51:50.251Z,4.68
2022-12-23T23:54:17.024Z,4.07
2022-12-23T23:56:43.472Z,4.15
2022-12-23T23:59:10.006Z,4.65
